PAFA/FAI METAR and TAF weather

Enter ICAO airport designator
Station Type Date Time Source
PAFA METAR 2023/02/01 11:53 UTC NOAA

PAFA 011153Z 04003KT 9SM -SN FEW023 BKN048 OVC065 M12/M14 RMK AO2 SLPNO P0000 60000 70003 T11221144 11094 21122 $


Station Type Date Time Source
PAFA Decoded METAR 2023/02/01 11:53 UTC NOAA

Fairbanks, Fairbanks International Airport, AK, United States (PAFA) 64-48-14N 147-52-34W 140M
Feb 01, 2023 - 06:53 AM EST / 2023.02.01 1153 UTC
Wind: from the NE (040 degrees) at 3 MPH (3 KT):0
Visibility: 9 mile(s):0
Sky conditions: overcast
Weather: light snow
Precipitation last hour: A trace
Temperature: 10.0 F (-12.2 C)
Dew Point: 6.1 F (-14.4 C)
Relative Humidity: 83%
ob: PAFA 011153Z 04003KT 9SM -SN FEW023 BKN048 OVC065 M12/M14 RMK AO2 SLPNO P0000 60000 70003 T11221144 11094 21122
cycle: 12

Station Type Date Time Source
PAFA TAF 2023/02/01 12:27 UTC NOAA

TAF TAF PAFA 011121Z 0112/0218 09005KT P6SM -SN BKN030 OVC045
FM011500 VRB04KT 5SM -SN BR OVC040
FM020600 VRB04KT 3SM -SN BR OVC020
FM021400 VRB04KT 1 1/2SM -SN BR BKN015 OVC025

Example: see airport list